Time;durP1;ratioP1;P1;durP2;ratioP2;P2;SDS_P1;SDS_P2;PMS_P1;PMS_P2;Temp;Humidity;BMP_temperature;BMP_pressure;BME280_temperature;BME280_humidity;BME280_pressure;Samples;Min_cycle;Max_cycle;Signal;HPM_P1;HPM_P2
2021/07/02 00:00:42;;;;;;;43.75;28.17;;;;;;;;;;5012027;28;20441;-65
2021/07/02 00:03:08;;;;;;;47.22;27.60;;;;;;;;;;5013015;28;20072;-65
2021/07/02 00:05:34;;;;;;;45.60;27.08;;;;;;;;;;5012094;28;20026;-65
2021/07/02 00:08:00;;;;;;;45.78;27.15;;;;;;;;;;5013176;28;20068;-63
2021/07/02 00:10:26;;;;;;;43.65;26.38;;;;;;;;;;5011018;28;20454;-64
2021/07/02 00:12:52;;;;;;;40.55;27.08;;;;;;;;;;5011864;28;20097;-65
2021/07/02 00:15:18;;;;;;;42.13;27.85;;;;;;;;;;5012575;28;20026;-64
2021/07/02 00:17:44;;;;;;;41.25;27.13;;;;;;;;;;5012856;28;20018;-65
2021/07/02 00:20:10;;;;;;;46.58;28.70;;;;;;;;;;5012505;28;20363;-66
2021/07/02 00:22:36;;;;;;;40.95;26.92;;;;;;;;;;5010663;28;20029;-66
2021/07/02 00:25:06;;;;;;;38.83;25.23;;;;;;;;;;5011029;28;20037;-66
2021/07/02 00:27:32;;;;;;;48.30;27.10;;;;;;;;;;5012424;28;20029;-65
2021/07/02 00:29:58;;;;;;;44.13;26.42;;;;;;;;;;5012829;28;20095;-65
2021/07/02 00:32:24;;;;;;;41.10;24.02;;;;;;;;;;5012165;28;20038;-65
2021/07/02 00:34:50;;;;;;;39.10;24.65;;;;;;;;;;5012055;28;20022;-64
2021/07/02 00:37:16;;;;;;;41.95;27.20;;;;;;;;;;5012335;28;20064;-65
2021/07/02 00:39:42;;;;;;;43.88;26.95;;;;;;;;;;5012144;28;20100;-64
2021/07/02 00:42:08;;;;;;;40.70;25.30;;;;;;;;;;5010792;28;20026;-64
2021/07/02 00:44:41;;;;;;;42.15;26.52;;;;;;;;;;5010575;28;20382;-65
2021/07/02 00:47:07;;;;;;;47.40;25.30;;;;;;;;;;5012056;28;20022;-65
2021/07/02 00:52:05;;;;;;;43.08;26.70;;;;;;;;;;5027474;23;20081;-63
2021/07/02 00:54:32;;;;;;;44.88;26.83;;;;;;;;;;5011952;28;20041;-60
2021/07/02 00:56:58;;;;;;;44.92;26.67;;;;;;;;;;5012799;28;20485;-60
2021/07/02 00:59:24;;;;;;;39.10;26.00;;;;;;;;;;4994577;28;20049;-60
2021/07/02 01:01:50;;;;;;;47.00;27.63;;;;;;;;;;4994953;28;20494;-63
2021/07/02 01:04:16;;;;;;;46.20;24.63;;;;;;;;;;4994703;28;20030;-63
2021/07/02 01:06:42;;;;;;;41.90;25.48;;;;;;;;;;4994887;28;20053;-61
2021/07/02 01:09:08;;;;;;;41.80;26.25;;;;;;;;;;5012453;28;20479;-60
2021/07/02 01:11:34;;;;;;;42.05;26.23;;;;;;;;;;4994803;28;20018;-61
2021/07/02 01:14:00;;;;;;;40.15;26.48;;;;;;;;;;5012549;28;20033;-60
2021/07/02 01:16:26;;;;;;;40.00;25.83;;;;;;;;;;5012151;28;20470;-64
2021/07/02 01:18:52;;;;;;;47.58;28.55;;;;;;;;;;5012317;28;20033;-61
2021/07/02 01:21:18;;;;;;;43.25;27.10;;;;;;;;;;4994806;28;20017;-62
2021/07/02 01:23:44;;;;;;;47.40;27.70;;;;;;;;;;5012191;28;20049;-62
2021/07/02 01:26:11;;;;;;;45.78;26.17;;;;;;;;;;5012110;28;20024;-62
2021/07/02 01:28:37;;;;;;;47.45;28.75;;;;;;;;;;5012378;28;20025;-61
2021/07/02 01:31:03;;;;;;;44.60;27.35;;;;;;;;;;4994490;28;20030;-62
2021/07/02 01:33:29;;;;;;;45.42;28.88;;;;;;;;;;4994832;28;20408;-62
2021/07/02 01:35:59;;;;;;;47.22;27.17;;;;;;;;;;5012144;28;20048;-62
2021/07/02 01:38:25;;;;;;;49.30;29.38;;;;;;;;;;4994612;28;20045;-64
2021/07/02 01:40:51;;;;;;;43.45;26.33;;;;;;;;;;5012157;28;20029;-64
2021/07/02 01:43:17;;;;;;;45.20;26.33;;;;;;;;;;4994842;28;20034;-64
2021/07/02 01:45:43;;;;;;;44.38;26.60;;;;;;;;;;4994224;28;20116;-63
2021/07/02 01:48:09;;;;;;;47.22;28.67;;;;;;;;;;5011959;28;20478;-61
2021/07/02 01:50:35;;;;;;;42.70;27.05;;;;;;;;;;5011767;28;20034;-64
2021/07/02 01:53:01;;;;;;;44.80;27.40;;;;;;;;;;5011969;28;20133;-61
2021/07/02 01:55:27;;;;;;;46.30;26.35;;;;;;;;;;5011790;28;20053;-61
2021/07/02 01:57:53;;;;;;;47.08;27.27;;;;;;;;;;5011931;28;20363;-62
2021/07/02 02:00:19;;;;;;;47.17;25.13;;;;;;;;;;5011834;28;20045;-63
2021/07/02 02:02:45;;;;;;;50.33;26.40;;;;;;;;;;5011890;28;20037;-62
2021/07/02 02:05:11;;;;;;;44.20;26.50;;;;;;;;;;5011824;28;20025;-62
2021/07/02 02:07:37;;;;;;;45.35;28.00;;;;;;;;;;4994369;28;20030;-62
2021/07/02 02:10:04;;;;;;;46.63;28.17;;;;;;;;;;4995071;28;20030;-62
2021/07/02 02:12:30;;;;;;;41.47;26.75;;;;;;;;;;5015760;28;20036;-62
2021/07/02 02:14:57;;;;;;;42.65;26.20;;;;;;;;;;5015389;28;20043;-62
2021/07/02 02:17:23;;;;;;;48.45;28.02;;;;;;;;;;5015598;28;20014;-63
2021/07/02 02:19:49;;;;;;;48.05;26.52;;;;;;;;;;5015517;28;20080;-63
2021/07/02 02:22:15;;;;;;;44.22;26.98;;;;;;;;;;5015519;28;20026;-62
2021/07/02 02:24:41;;;;;;;51.40;28.35;;;;;;;;;;5015356;28;20103;-63
2021/07/02 02:27:09;;;;;;;39.38;25.77;;;;;;;;;;4997904;28;20021;-62
2021/07/02 02:29:35;;;;;;;47.53;27.48;;;;;;;;;;4997852;28;20069;-62
2021/07/02 02:32:01;;;;;;;45.20;27.70;;;;;;;;;;4997482;28;20037;-62
2021/07/02 02:34:27;;;;;;;41.65;26.17;;;;;;;;;;4997574;28;20153;-61
2021/07/02 02:36:53;;;;;;;47.67;26.60;;;;;;;;;;5015415;28;20026;-62
2021/07/02 02:39:19;;;;;;;47.50;26.35;;;;;;;;;;5015571;28;20022;-62
2021/07/02 02:41:45;;;;;;;50.47;27.92;;;;;;;;;;5015215;28;20532;-63
2021/07/02 02:44:11;;;;;;;46.70;25.05;;;;;;;;;;5015099;28;20034;-61
2021/07/02 02:46:37;;;;;;;48.55;27.17;;;;;;;;;;5015090;28;20030;-60
2021/07/02 02:49:03;;;;;;;40.25;26.50;;;;;;;;;;5015115;28;20021;-62
2021/07/02 02:51:29;;;;;;;48.17;26.20;;;;;;;;;;4981272;28;20037;-62
2021/07/02 02:53:55;;;;;;;44.72;28.85;;;;;;;;;;5015098;28;20025;-61
2021/07/02 02:56:21;;;;;;;41.60;27.83;;;;;;;;;;4997356;28;20061;-61
2021/07/02 02:58:47;;;;;;;44.90;26.58;;;;;;;;;;5015594;28;20022;-63
2021/07/02 03:01:14;;;;;;;50.38;27.15;;;;;;;;;;5014813;28;20528;-61
2021/07/02 03:03:40;;;;;;;47.45;27.52;;;;;;;;;;5014929;28;20025;-62
2021/07/02 03:06:06;;;;;;;46.25;27.63;;;;;;;;;;5014483;28;20335;-61
2021/07/02 03:08:32;;;;;;;43.67;28.10;;;;;;;;;;5014760;28;20043;-63
2021/07/02 03:10:58;;;;;;;43.72;26.08;;;;;;;;;;5014593;28;20026;-61
2021/07/02 03:13:24;;;;;;;44.80;27.25;;;;;;;;;;5015226;28;20022;-61
2021/07/02 03:15:50;;;;;;;42.15;26.55;;;;;;;;;;5014659;28;20033;-62
2021/07/02 03:18:16;;;;;;;47.38;26.65;;;;;;;;;;5014402;28;20104;-62
2021/07/02 03:20:44;;;;;;;43.13;27.65;;;;;;;;;;5013928;28;20072;-62
2021/07/02 03:23:10;;;;;;;46.40;27.67;;;;;;;;;;5014593;28;20105;-62
2021/07/02 03:25:36;;;;;;;47.30;28.33;;;;;;;;;;5014431;28;20061;-61
2021/07/02 03:28:02;;;;;;;39.53;25.67;;;;;;;;;;4996561;28;20565;-62
2021/07/02 03:30:28;;;;;;;47.42;27.17;;;;;;;;;;5014312;28;20395;-62
2021/07/02 03:32:54;;;;;;;46.15;26.73;;;;;;;;;;4996998;28;20026;-60
2021/07/02 03:35:20;;;;;;;42.03;25.25;;;;;;;;;;5013805;28;20485;-62
2021/07/02 03:37:46;;;;;;;45.80;27.27;;;;;;;;;;4996122;28;20028;-62
2021/07/02 03:40:13;;;;;;;44.88;27.88;;;;;;;;;;4996202;28;20116;-61
2021/07/02 03:42:39;;;;;;;48.75;27.67;;;;;;;;;;5013854;28;20033;-62
2021/07/02 03:45:05;;;;;;;44.20;27.30;;;;;;;;;;5013673;28;20034;-62
2021/07/02 03:47:32;;;;;;;49.03;25.52;;;;;;;;;;5013764;28;20037;-61
2021/07/02 03:49:58;;;;;;;43.20;27.30;;;;;;;;;;5013473;28;20436;-62
2021/07/02 03:52:24;;;;;;;49.40;27.25;;;;;;;;;;5013765;28;20026;-62
2021/07/02 03:54:53;;;;;;;53.38;28.95;;;;;;;;;;4995923;28;20037;-62
2021/07/02 03:57:19;;;;;;;44.47;26.85;;;;;;;;;;5013643;28;20022;-62
2021/07/02 03:59:47;;;;;;;51.65;27.98;;;;;;;;;;5013558;28;20037;-63
2021/07/02 04:02:13;;;;;;;53.07;28.70;;;;;;;;;;4995885;28;20053;-62
2021/07/02 04:04:39;;;;;;;41.85;27.35;;;;;;;;;;5013072;28;20032;-62
2021/07/02 04:07:06;;;;;;;48.33;28.98;;;;;;;;;;5012896;28;20156;-62
2021/07/02 04:09:32;;;;;;;41.70;28.42;;;;;;;;;;5013015;28;20025;-61
2021/07/02 04:11:59;;;;;;;49.58;29.17;;;;;;;;;;5012903;28;20022;-62
2021/07/02 04:14:26;;;;;;;44.55;28.35;;;;;;;;;;4994968;28;20033;-62
2021/07/02 04:16:52;;;;;;;41.90;27.23;;;;;;;;;;4995609;28;20057;-63
2021/07/02 04:19:18;;;;;;;44.33;27.70;;;;;;;;;;4995230;28;20065;-62
2021/07/02 04:21:43;;;;;;;43.78;26.42;;;;;;;;;;5012770;28;20084;-63
2021/07/02 04:24:10;;;;;;;43.78;27.02;;;;;;;;;;4994989;28;20033;-61
2021/07/02 04:26:36;;;;;;;44.67;26.45;;;;;;;;;;5012835;28;20032;-62
2021/07/02 04:29:02;;;;;;;47.03;26.73;;;;;;;;;;5012288;28;20025;-63
2021/07/02 04:31:28;;;;;;;38.78;26.95;;;;;;;;;;4995248;28;20034;-62
2021/07/02 04:33:54;;;;;;;43.22;27.20;;;;;;;;;;5011584;28;20026;-62
2021/07/02 04:36:20;;;;;;;41.67;24.98;;;;;;;;;;5012277;28;20037;-62
2021/07/02 04:38:45;;;;;;;42.42;27.08;;;;;;;;;;4994679;28;20021;-63
2021/07/02 04:41:12;;;;;;;39.55;25.25;;;;;;;;;;4994621;28;20627;-62
2021/07/02 04:43:38;;;;;;;40.45;25.77;;;;;;;;;;5012345;28;20478;-63
2021/07/02 04:46:04;;;;;;;37.50;27.17;;;;;;;;;;4994257;28;20047;-62
2021/07/02 04:48:30;;;;;;;44.25;26.20;;;;;;;;;;5012214;28;20343;-62
2021/07/02 04:50:56;;;;;;;44.08;26.00;;;;;;;;;;4994382;28;20041;-61
2021/07/02 04:53:21;;;;;;;38.30;24.02;;;;;;;;;;4994411;28;20037;-60
2021/07/02 04:55:48;;;;;;;40.97;25.55;;;;;;;;;;5011840;28;20036;-62
2021/07/02 04:58:17;;;;;;;40.13;26.45;;;;;;;;;;4994297;28;20026;-63
2021/07/02 05:00:43;;;;;;;40.75;25.40;;;;;;;;;;5011917;28;20559;-62
2021/07/02 05:03:09;;;;;;;39.97;25.33;;;;;;;;;;5012075;28;20018;-62
2021/07/02 05:05:35;;;;;;;42.85;27.33;;;;;;;;;;5011705;28;20030;-63
2021/07/02 05:08:02;;;;;;;41.38;24.08;;;;;;;;;;5011839;28;20488;-60
2021/07/02 05:10:28;;;;;;;38.88;25.73;;;;;;;;;;4994031;28;20041;-63
2021/07/02 05:12:54;;;;;;;41.58;25.17;;;;;;;;;;5011591;28;20026;-63
2021/07/02 05:15:20;;;;;;;42.60;25.15;;;;;;;;;;5011553;28;20025;-64
2021/07/02 05:17:46;;;;;;;39.83;24.85;;;;;;;;;;5011892;28;20022;-62
2021/07/02 05:20:12;;;;;;;36.13;23.95;;;;;;;;;;5011442;28;20050;-63
2021/07/02 05:22:38;;;;;;;36.13;23.67;;;;;;;;;;5011891;28;20026;-63
2021/07/02 05:25:06;;;;;;;41.10;25.48;;;;;;;;;;4993842;28;20037;-63
2021/07/02 05:27:32;;;;;;;37.63;23.88;;;;;;;;;;5011692;28;20022;-61
2021/07/02 05:29:58;;;;;;;35.40;24.58;;;;;;;;;;5009996;28;20034;-61
2021/07/02 05:32:24;;;;;;;35.95;23.25;;;;;;;;;;4992775;28;20520;-62
2021/07/02 05:34:50;;;;;;;38.72;23.67;;;;;;;;;;5011066;28;20018;-59
2021/07/02 05:37:16;;;;;;;43.72;22.75;;;;;;;;;;5011272;28;20104;-59
2021/07/02 05:39:42;;;;;;;39.45;25.25;;;;;;;;;;4993357;28;20068;-63
2021/07/02 05:42:08;;;;;;;36.00;23.30;;;;;;;;;;4992902;28;20124;-61
2021/07/02 05:44:34;;;;;;;42.83;23.20;;;;;;;;;;5012860;28;20109;-63
2021/07/02 05:47:00;;;;;;;37.72;22.60;;;;;;;;;;5015327;28;20478;-63
2021/07/02 05:49:26;;;;;;;40.60;24.50;;;;;;;;;;5015545;28;20026;-63
2021/07/02 05:51:52;;;;;;;35.25;22.92;;;;;;;;;;4997085;28;20064;-60
2021/07/02 05:54:18;;;;;;;35.92;23.00;;;;;;;;;;5015159;28;20433;-63
2021/07/02 05:56:45;;;;;;;36.53;21.77;;;;;;;;;;5014908;28;20442;-62
2021/07/02 05:59:12;;;;;;;37.53;22.25;;;;;;;;;;5015157;28;20470;-63
2021/07/02 06:01:38;;;;;;;42.85;25.35;;;;;;;;;;4997471;28;20029;-63
2021/07/02 06:04:04;;;;;;;36.50;23.90;;;;;;;;;;5015607;28;20022;-60
2021/07/02 06:06:30;;;;;;;32.72;24.02;;;;;;;;;;5014489;28;20105;-62
2021/07/02 06:08:56;;;;;;;34.15;22.13;;;;;;;;;;4997236;28;20037;-63
2021/07/02 06:11:23;;;;;;;33.63;22.25;;;;;;;;;;5015049;28;20106;-63
2021/07/02 06:13:49;;;;;;;33.63;22.83;;;;;;;;;;5015078;28;20398;-62
2021/07/02 06:16:15;;;;;;;34.97;21.42;;;;;;;;;;5014929;28;20026;-63
2021/07/02 06:18:41;;;;;;;31.15;20.88;;;;;;;;;;5014597;28;20505;-62
2021/07/02 06:21:07;;;;;;;33.42;22.35;;;;;;;;;;5014640;28;20425;-62
2021/07/02 06:23:34;;;;;;;32.03;21.40;;;;;;;;;;5014754;28;20026;-62
2021/07/02 06:26:01;;;;;;;32.45;21.08;;;;;;;;;;5014406;28;20164;-62
2021/07/02 06:28:28;;;;;;;39.33;22.33;;;;;;;;;;5014644;28;20026;-62
2021/07/02 06:30:54;;;;;;;36.08;22.80;;;;;;;;;;5014561;28;20033;-63
2021/07/02 06:33:20;;;;;;;31.98;20.77;;;;;;;;;;5014569;28;20021;-63
2021/07/02 06:35:46;;;;;;;31.40;20.98;;;;;;;;;;5014250;28;20021;-62
2021/07/02 06:38:12;;;;;;;30.90;19.63;;;;;;;;;;5014425;28;20061;-62
2021/07/02 06:40:38;;;;;;;27.50;17.40;;;;;;;;;;5014230;28;20210;-62
2021/07/02 06:43:04;;;;;;;30.63;18.25;;;;;;;;;;5014486;28;20061;-62
2021/07/02 06:45:31;;;;;;;29.98;21.20;;;;;;;;;;5013938;28;20054;-62
2021/07/02 06:48:01;;;;;;;28.88;19.02;;;;;;;;;;4996398;28;20025;-62
2021/07/02 06:50:28;;;;;;;30.05;18.50;;;;;;;;;;5014925;28;20029;-62
2021/07/02 06:52:55;;;;;;;29.13;16.58;;;;;;;;;;5013869;28;20037;-63
2021/07/02 06:55:21;;;;;;;30.35;18.00;;;;;;;;;;4995083;28;20467;-62
2021/07/02 06:57:47;;;;;;;29.25;17.60;;;;;;;;;;5013760;28;20105;-62
2021/07/02 07:00:16;;;;;;;27.50;18.05;;;;;;;;;;5013599;28;20061;-62
2021/07/02 07:02:42;;;;;;;32.13;19.13;;;;;;;;;;5013673;28;20022;-62
2021/07/02 07:05:08;;;;;;;30.38;20.23;;;;;;;;;;5013230;28;20426;-62
2021/07/02 07:07:34;;;;;;;31.23;19.33;;;;;;;;;;4995781;28;20371;-62
2021/07/02 07:10:00;;;;;;;29.88;18.77;;;;;;;;;;5013389;28;20028;-61
2021/07/02 07:12:27;;;;;;;31.27;19.45;;;;;;;;;;5013561;28;20378;-62
2021/07/02 07:14:53;;;;;;;28.80;17.80;;;;;;;;;;5013289;28;20142;-61
2021/07/02 07:17:19;;;;;;;29.48;18.63;;;;;;;;;;5013240;28;20022;-62
2021/07/02 07:19:45;;;;;;;32.42;17.58;;;;;;;;;;4996359;28;20052;-61
2021/07/02 07:22:11;;;;;;;27.70;18.33;;;;;;;;;;5013821;28;20054;-60
2021/07/02 07:24:37;;;;;;;28.48;17.00;;;;;;;;;;4995845;28;20026;-61
2021/07/02 07:27:03;;;;;;;24.65;17.30;;;;;;;;;;4995988;28;20030;-61
2021/07/02 07:29:29;;;;;;;29.40;18.60;;;;;;;;;;5013408;28;20030;-62
2021/07/02 07:31:56;;;;;;;28.42;17.98;;;;;;;;;;5013683;28;20463;-60
2021/07/02 07:34:26;;;;;;;26.58;17.65;;;;;;;;;;4995594;28;20060;-61
2021/07/02 07:36:55;;;;;;;26.48;17.20;;;;;;;;;;5013054;28;20498;-61
2021/07/02 07:39:21;;;;;;;27.98;17.98;;;;;;;;;;5012710;28;20049;-62
2021/07/02 07:41:47;;;;;;;26.90;17.70;;;;;;;;;;5013034;28;20079;-62
2021/07/02 07:44:13;;;;;;;26.48;17.35;;;;;;;;;;5012929;28;20033;-56
2021/07/02 07:46:39;;;;;;;29.08;18.38;;;;;;;;;;4995908;28;20436;-61
2021/07/02 07:49:06;;;;;;;24.77;18.08;;;;;;;;;;4995483;28;20484;-60
2021/07/02 07:51:35;;;;;;;32.97;20.05;;;;;;;;;;5012948;28;20026;-61
2021/07/02 07:54:01;;;;;;;29.08;18.83;;;;;;;;;;5013121;28;20532;-61
2021/07/02 07:56:28;;;;;;;28.15;17.35;;;;;;;;;;5012873;28;20033;-58
2021/07/02 07:58:54;;;;;;;26.15;16.60;;;;;;;;;;5012760;28;20084;-60
2021/07/02 08:01:20;;;;;;;25.92;16.70;;;;;;;;;;5013345;28;20474;-61
2021/07/02 08:03:47;;;;;;;25.48;16.67;;;;;;;;;;5013243;28;20057;-65
2021/07/02 08:06:13;;;;;;;31.20;17.45;;;;;;;;;;5012888;28;20083;-63
2021/07/02 08:08:39;;;;;;;26.33;18.85;;;;;;;;;;4995496;28;20124;-63
2021/07/02 08:11:05;;;;;;;25.23;17.00;;;;;;;;;;5012874;28;20022;-63
2021/07/02 08:13:31;;;;;;;24.27;16.40;;;;;;;;;;5012822;28;20092;-62
2021/07/02 08:15:57;;;;;;;24.95;16.63;;;;;;;;;;5012577;28;20053;-63
2021/07/02 08:18:23;;;;;;;25.13;15.82;;;;;;;;;;5012661;28;20021;-63
2021/07/02 08:20:49;;;;;;;24.67;17.88;;;;;;;;;;5012699;28;20022;-64
2021/07/02 08:23:16;;;;;;;25.98;17.10;;;;;;;;;;5012688;28;20442;-63
2021/07/02 08:25:42;;;;;;;26.05;16.73;;;;;;;;;;4994846;28;20034;-63
2021/07/02 08:30:52;;;;;;;25.63;15.90;;;;;;;;;;5012546;28;20477;-63
2021/07/02 08:33:20;;;;;;;26.27;16.33;;;;;;;;;;5011681;28;20033;-63
2021/07/02 08:35:46;;;;;;;26.77;16.73;;;;;;;;;;5012263;28;20105;-63
2021/07/02 08:38:13;;;;;;;24.20;16.63;;;;;;;;;;5012351;28;20018;-61
2021/07/02 08:40:39;;;;;;;30.25;15.75;;;;;;;;;;5012019;28;20046;-63
2021/07/02 08:43:05;;;;;;;23.20;15.85;;;;;;;;;;5012162;28;20026;-63
2021/07/02 08:45:31;;;;;;;25.42;15.88;;;;;;;;;;5012132;28;20076;-64
2021/07/02 08:48:02;;;;;;;24.85;15.82;;;;;;;;;;5012279;28;20058;-63
2021/07/02 08:50:28;;;;;;;26.27;16.73;;;;;;;;;;5011787;28;20437;-63
2021/07/02 08:52:54;;;;;;;27.88;16.55;;;;;;;;;;5011736;28;20022;-63
2021/07/02 08:55:20;;;;;;;24.77;16.30;;;;;;;;;;5011657;28;20026;-63
2021/07/02 08:57:46;;;;;;;24.92;17.15;;;;;;;;;;5011741;28;20497;-64
2021/07/02 09:00:12;;;;;;;24.00;16.33;;;;;;;;;;5011501;28;20110;-63
2021/07/02 09:02:40;;;;;;;27.63;17.48;;;;;;;;;;4994171;28;20026;-63
2021/07/02 09:05:26;;;;;;;27.00;17.98;;;;;;;;;;4993823;28;20022;-63
2021/07/02 09:07:52;;;;;;;29.05;17.85;;;;;;;;;;5011707;28;20034;-63
2021/07/02 09:10:18;;;;;;;24.00;16.52;;;;;;;;;;5011636;28;20060;-63
2021/07/02 09:12:51;;;;;;;26.02;18.63;;;;;;;;;;5011581;28;20099;-61
2021/07/02 09:15:17;;;;;;;26.25;17.27;;;;;;;;;;5011543;28;20478;-61
2021/07/02 09:17:46;;;;;;;25.45;16.58;;;;;;;;;;5009264;28;20050;-61
2021/07/02 09:20:19;;;;;;;27.75;16.98;;;;;;;;;;4990419;28;20040;-62
2021/07/02 09:22:49;;;;;;;27.17;17.08;;;;;;;;;;5008067;28;20084;-61
2021/07/02 09:25:25;;;;;;;26.63;16.60;;;;;;;;;;5008586;28;20098;-60
2021/07/02 09:27:52;;;;;;;25.05;16.17;;;;;;;;;;5007090;28;20435;-62
2021/07/02 09:30:20;;;;;;;26.77;16.25;;;;;;;;;;5006194;28;20496;-62
2021/07/02 09:32:50;;;;;;;25.43;16.63;;;;;;;;;;4998538;28;20132;-62
2021/07/02 09:35:18;;;;;;;26.38;17.08;;;;;;;;;;5011519;28;20030;-61
2021/07/02 09:37:54;;;;;;;25.50;19.02;;;;;;;;;;5011839;28;20022;-61
2021/07/02 09:40:22;;;;;;;25.33;16.60;;;;;;;;;;5011838;28;20030;-62
2021/07/02 09:42:58;;;;;;;23.23;17.42;;;;;;;;;;5011906;28;20363;-62
2021/07/02 09:45:24;;;;;;;24.38;16.15;;;;;;;;;;5011169;28;20022;-60
2021/07/02 09:47:50;;;;;;;26.92;16.83;;;;;;;;;;4994271;28;20022;-60
2021/07/02 09:50:23;;;;;;;23.55;15.48;;;;;;;;;;5011572;28;20052;-61
2021/07/02 09:52:57;;;;;;;24.10;16.25;;;;;;;;;;5011579;28;20037;-63
2021/07/02 09:55:24;;;;;;;24.15;15.68;;;;;;;;;;4994118;28;20033;-59
2021/07/02 09:57:54;;;;;;;22.83;17.25;;;;;;;;;;5011538;28;20022;-60
2021/07/02 10:00:20;;;;;;;25.17;17.02;;;;;;;;;;5011796;28;20030;-57
2021/07/02 10:02:53;;;;;;;24.15;16.70;;;;;;;;;;4664568;28;10000226;-59
2021/07/02 10:05:19;;;;;;;23.63;17.35;;;;;;;;;;5012296;28;20371;-60
2021/07/02 10:07:59;;;;;;;24.65;16.23;;;;;;;;;;5011289;28;20058;-55
2021/07/02 10:10:25;;;;;;;24.52;15.75;;;;;;;;;;5010232;28;20129;-60
2021/07/02 10:12:53;;;;;;;23.58;15.23;;;;;;;;;;5009348;28;20022;-60
2021/07/02 10:15:19;;;;;;;22.80;15.88;;;;;;;;;;5009249;28;20029;-60
2021/07/02 10:17:45;;;;;;;24.15;16.30;;;;;;;;;;5009029;28;20029;-59
2021/07/02 10:20:12;;;;;;;21.48;15.70;;;;;;;;;;5008868;28;20061;-59
2021/07/02 10:22:41;;;;;;;21.13;15.02;;;;;;;;;;5009439;28;20118;-60
2021/07/02 10:25:08;;;;;;;22.08;15.00;;;;;;;;;;4991349;28;20025;-59
2021/07/02 10:27:34;;;;;;;22.13;15.68;;;;;;;;;;4993473;28;20026;-59
2021/07/02 10:30:01;;;;;;;21.75;14.63;;;;;;;;;;4993927;28;20025;-60
2021/07/02 10:32:27;;;;;;;22.45;14.88;;;;;;;;;;5013889;28;20029;-61
2021/07/02 10:34:54;;;;;;;20.75;15.32;;;;;;;;;;4996507;28;20018;-60
2021/07/02 10:37:20;;;;;;;21.80;15.18;;;;;;;;;;5014859;28;20541;-57
2021/07/02 10:39:46;;;;;;;22.55;15.85;;;;;;;;;;5014439;28;20110;-58
2021/07/02 10:42:13;;;;;;;22.65;15.10;;;;;;;;;;5014428;28;20057;-60
2021/07/02 10:44:59;;;;;;;21.10;13.82;;;;;;;;;;5014058;28;20030;-56
2021/07/02 10:47:26;;;;;;;21.27;15.63;;;;;;;;;;5014234;28;20497;-58
2021/07/02 10:49:53;;;;;;;19.77;14.93;;;;;;;;;;4996057;28;20509;-60
2021/07/02 10:52:30;;;;;;;21.58;15.90;;;;;;;;;;4996478;28;20026;-60
2021/07/02 10:54:58;;;;;;;20.58;14.80;;;;;;;;;;5014083;28;20022;-60
2021/07/02 10:57:24;;;;;;;;;;;;;;;;;;4997309;28;20030;-59
2021/07/02 10:59:54;;;;;;;21.95;15.00;;;;;;;;;;5013681;28;20431;-61
2021/07/02 11:02:20;;;;;;;22.27;16.67;;;;;;;;;;5012958;28;20105;-57
2021/07/02 11:04:49;;;;;;;22.88;15.57;;;;;;;;;;4995406;28;20025;-59
2021/07/02 11:07:15;;;;;;;20.23;15.60;;;;;;;;;;4996121;28;20042;-61
2021/07/02 11:09:44;;;;;;;20.52;14.63;;;;;;;;;;5014326;28;20065;-61
2021/07/02 11:12:11;;;;;;;20.25;14.20;;;;;;;;;;5013947;28;20018;-60
2021/07/02 11:17:20;;;;;;;20.38;14.60;;;;;;;;;;5014414;28;20529;-60
2021/07/02 11:19:46;;;;;;;23.65;15.65;;;;;;;;;;5014239;28;20022;-57
2021/07/02 11:22:23;;;;;;;19.08;14.75;;;;;;;;;;5014099;28;20026;-59
2021/07/02 11:25:08;;;;;;;18.85;15.00;;;19.70;99.90;;;;;;4995996;28;20057;-61
2021/07/02 11:27:45;;;;;;;21.02;14.82;;;;;;;;;;5014382;28;20029;-60
2021/07/02 11:30:21;;;;;;;19.73;15.55;;;;;;;;;;5013658;28;20030;-60
2021/07/02 11:32:48;;;;;;;20.77;15.65;;;;;;;;;;5013635;28;20022;-60
2021/07/02 11:35:21;;;;;;;19.75;15.80;;;;;;;;;;5013325;28;20110;-62
2021/07/02 11:38:03;;;;;;;22.45;17.33;;;;;;;;;;5013615;28;20025;-63
2021/07/02 11:40:30;;;;;;;18.95;15.13;;;;;;;;;;5013256;28;20040;-61
2021/07/02 11:42:57;;;;;;;20.10;14.85;;;;;;;;;;5012015;28;20113;-58
2021/07/02 11:45:47;;;;;;;20.00;15.80;;;;;;;;;;5011266;28;20545;-60
2021/07/02 11:48:20;;;;;;;19.27;15.40;;;;;;;;;;5001619;28;20433;-60
2021/07/02 11:50:49;;;;;;;21.20;16.50;;;;;;;;;;5012112;28;20072;-59
2021/07/02 11:53:34;;;;;;;20.27;15.65;;;;;;;;;;4991836;28;20413;-61
2021/07/02 11:56:08;;;;;;;21.20;15.95;;;;;;;;;;5010219;28;20024;-57
2021/07/02 11:58:36;;;;;;;18.90;15.93;;;;;;;;;;4994556;28;20097;-59
2021/07/02 12:01:05;;;;;;;18.65;16.13;;;23.20;99.90;;;;;;5012324;28;20022;-62
2021/07/02 12:03:31;;;;;;;20.15;17.20;;;24.80;99.90;;;;;;5013583;28;20035;-62
2021/07/02 12:05:58;;;;;;;19.65;17.55;;;24.50;99.00;;;;;;5012831;28;20071;-60
2021/07/02 12:08:25;;;;;;;18.80;16.30;;;;;;;;;;5012822;28;20482;-63
2021/07/02 12:10:58;;;;;;;20.00;17.08;;;;;;;;;;4995161;28;20494;-63
2021/07/02 12:13:24;;;;;;;19.23;16.85;;;;;;;;;;4994914;28;20045;-58
2021/07/02 12:16:04;;;;;;;20.92;16.92;;;;;;;;;;5012317;28;20069;-62
2021/07/02 12:18:30;;;;;;;19.45;17.35;;;;;;;;;;4994013;28;20026;-59
2021/07/02 12:21:00;;;;;;;20.52;17.60;;;;;;;;;;5011787;28;20364;-63
2021/07/02 12:23:41;;;;;;;19.95;17.85;;;;;;;;;;5011771;28;20486;-63
2021/07/02 12:26:27;;;;;;;20.17;17.50;;;;;;;;;;4992816;28;20402;-63
2021/07/02 12:29:04;;;;;;;19.77;17.65;;;;;;;;;;5011807;28;20014;-63
2021/07/02 12:31:32;;;;;;;19.13;16.95;;;;;;;;;;5011264;28;20029;-62
2021/07/02 12:33:58;;;;;;;19.73;17.25;;;;;;;;;;5011774;28;20083;-61
2021/07/02 12:36:26;;;;;;;19.67;16.80;;;;;;;;;;4993660;28;20450;-61
2021/07/02 12:39:07;;;;;;;20.98;16.83;;;;;;;;;;5012340;28;20026;-61
2021/07/02 12:41:36;;;;;;;19.42;17.20;;;;;;;;;;5011584;28;20079;-64
2021/07/02 12:44:02;;;;;;;19.40;16.35;;;;;;;;;;4994064;28;20033;-63
2021/07/02 12:46:28;;;;;;;19.55;16.90;;;;;;;;;;5011941;28;20057;-62
2021/07/02 12:49:20;;;;;;;19.38;17.38;;;;;;;;;;4660652;28;10000474;-64
2021/07/02 12:54:53;;;;;;;22.60;18.65;;;;;;;;;;4970049;28;20034;-62
2021/07/02 12:57:25;;;;;;;21.10;18.40;;;;;;;;;;5020108;22;20026;-62
2021/07/02 12:59:53;;;;;;;20.20;18.02;;;;;;;;;;5026207;28;20037;-63
2021/07/02 13:02:23;;;;;;;23.77;18.53;;;;;;;;;;5047377;28;20526;-63
2021/07/02 13:04:48;;;;;;;21.25;19.00;;;27.00;93.50;;;;;;5048662;28;20032;-62
2021/07/02 13:07:14;;;;;;;21.38;18.92;;;;;;;;;;5031611;28;20033;-62
2021/07/02 13:09:41;;;;;;;20.38;18.27;;;;;;;;;;5049418;28;20036;-62
2021/07/02 13:12:12;;;;;;;21.05;18.88;;;;;;;;;;5049250;28;20024;-62
2021/07/02 13:14:43;;;;;;;21.15;18.95;;;;;;;;;;5030575;28;20017;-58
2021/07/02 13:17:09;;;;;;;21.73;19.40;;;;;;;;;;5048234;28;20464;-62
2021/07/02 13:19:36;;;;;;;21.67;19.25;;;;;;;;;;5030802;28;20029;-64
2021/07/02 13:22:12;;;;;;;21.90;19.33;;;;;;;;;;5031247;28;20029;-62
2021/07/02 13:24:38;;;;;;;21.80;19.15;;;;;;;;;;5030877;28;20054;-64
2021/07/02 13:27:04;;;;;;;20.95;18.75;;;;;;;;;;5049020;28;20032;-63
2021/07/02 13:29:31;;;;;;;20.55;18.45;;;;;;;;;;5048954;28;20460;-62
2021/07/02 13:31:57;;;;;;;19.95;17.83;;;;;;;;;;5048774;28;20578;-64
2021/07/02 13:34:26;;;;;;;20.20;18.02;;;;;;;;;;5048886;28;20047;-64
2021/07/02 13:36:56;;;;;;;20.25;18.15;;;;;;;;;;5031310;28;20071;-64
2021/07/02 13:39:23;;;;;;;20.27;18.17;;;27.40;91.10;;;;;;5033755;28;20025;-62
2021/07/02 13:42:14;;;;;;;19.80;17.65;;;24.50;93.90;;;;;;5051221;28;20021;-63
2021/07/02 13:44:52;;;;;;;20.52;18.08;;;24.20;93.70;;;;;;4683605;28;10000562;-64
2021/07/02 13:47:34;;;;;;;19.42;17.33;;;24.40;94.60;;;;;;5030875;28;20036;-62
2021/07/02 13:50:00;;;;;;;19.85;17.45;;;;;;;;;;5030620;28;20041;-64
2021/07/02 13:52:29;;;;;;;20.55;17.90;;;;;;;;;;5048241;28;20370;-64
2021/07/02 13:54:56;;;;;;;22.73;17.73;;;;;;;;;;5030193;28;20416;-62
2021/07/02 13:57:23;;;;;;;20.13;17.92;;;;;;;;;;5030407;28;20497;-63
2021/07/02 13:59:49;;;;;;;19.58;17.17;;;;;;;;;;5048285;28;20040;-63
2021/07/02 14:02:15;;;;;;;19.85;17.75;;;;;;;;;;5048466;28;20493;-63
2021/07/02 14:04:42;;;;;;;21.00;18.33;;;;;;;;;;5030110;28;20515;-62
2021/07/02 14:07:08;;;;;;;20.83;17.90;;;;;;;;;;5034605;28;20029;-64
2021/07/02 14:09:34;;;;;;;20.27;18.00;;;;;;;;;;5052232;28;20392;-62
2021/07/02 14:12:00;;;;;;;21.40;19.20;;;24.60;94.20;;;;;;5034385;28;20021;-62
2021/07/02 14:14:25;;;;;;;19.65;17.65;;;26.30;91.60;;;;;;5051630;28;20430;-63
2021/07/02 14:16:52;;;;;;;21.42;18.30;;;;;;;;;;5051932;28;20025;-62
2021/07/02 14:19:17;;;;;;;20.15;17.95;;;26.20;91.40;;;;;;5052040;28;20055;-64
2021/07/02 14:21:43;;;;;;;20.40;18.20;;;27.80;90.80;;;;;;5052102;28;20051;-64
2021/07/02 14:24:11;;;;;;;20.42;18.33;;;;;;;;;;5051099;28;20123;-64